sensor_id;sensor_type;location;lat;lon;timestamp;P1;durP1;ratioP1;P2;durP2;ratioP2
51080;SDS011;37130;55.670;37.596;2023-09-07T00:02:14;0.00;;;0.00;;
51080;SDS011;37130;55.670;37.596;2023-09-07T00:04:41;0.00;;;0.00;;
51080;SDS011;37130;55.670;37.596;2023-09-07T00:07:10;0.00;;;0.00;;
51080;SDS011;37130;55.670;37.596;2023-09-07T00:09:38;0.00;;;0.00;;
51080;SDS011;37130;55.670;37.596;2023-09-07T00:12:05;0.00;;;0.00;;
51080;SDS011;37130;55.670;37.596;2023-09-07T00:14:33;0.00;;;0.00;;
51080;SDS011;37130;55.670;37.596;2023-09-07T00:17:00;0.00;;;0.00;;
51080;SDS011;37130;55.670;37.596;2023-09-07T00:19:28;0.00;;;0.00;;
51080;SDS011;37130;55.670;37.596;2023-09-07T00:21:56;0.00;;;0.00;;
51080;SDS011;37130;55.670;37.596;2023-09-07T00:24:25;0.00;;;0.00;;
51080;SDS011;37130;55.670;37.596;2023-09-07T00:26:52;0.00;;;0.00;;
51080;SDS011;37130;55.670;37.596;2023-09-07T00:29:19;0.00;;;0.00;;
51080;SDS011;37130;55.670;37.596;2023-09-07T00:31:47;0.00;;;0.00;;
51080;SDS011;37130;55.670;37.596;2023-09-07T00:34:15;0.00;;;0.00;;
51080;SDS011;37130;55.670;37.596;2023-09-07T00:36:42;0.00;;;0.00;;
51080;SDS011;37130;55.670;37.596;2023-09-07T00:39:09;0.00;;;0.00;;
51080;SDS011;37130;55.670;37.596;2023-09-07T00:41:37;0.00;;;0.00;;
51080;SDS011;37130;55.670;37.596;2023-09-07T00:44:04;0.00;;;0.00;;
51080;SDS011;37130;55.670;37.596;2023-09-07T00:46:31;0.00;;;0.00;;
51080;SDS011;37130;55.670;37.596;2023-09-07T00:48:59;0.00;;;0.00;;
51080;SDS011;37130;55.670;37.596;2023-09-07T00:51:28;0.00;;;0.00;;
51080;SDS011;37130;55.670;37.596;2023-09-07T00:53:55;0.00;;;0.00;;
51080;SDS011;37130;55.670;37.596;2023-09-07T00:56:25;0.00;;;0.00;;
51080;SDS011;37130;55.670;37.596;2023-09-07T00:58:53;0.00;;;0.00;;
51080;SDS011;37130;55.670;37.596;2023-09-07T01:01:25;0.00;;;0.00;;
51080;SDS011;37130;55.670;37.596;2023-09-07T01:03:53;0.00;;;0.00;;
51080;SDS011;37130;55.670;37.596;2023-09-07T01:06:27;0.00;;;0.00;;
51080;SDS011;37130;55.670;37.596;2023-09-07T01:08:59;0.00;;;0.00;;
51080;SDS011;37130;55.670;37.596;2023-09-07T01:14:04;0.00;;;0.00;;
51080;SDS011;37130;55.670;37.596;2023-09-07T01:16:32;0.00;;;0.00;;
51080;SDS011;37130;55.670;37.596;2023-09-07T01:19:06;0.00;;;0.00;;
51080;SDS011;37130;55.670;37.596;2023-09-07T01:21:34;0.00;;;0.00;;
51080;SDS011;37130;55.670;37.596;2023-09-07T01:24:04;0.00;;;0.00;;
51080;SDS011;37130;55.670;37.596;2023-09-07T01:26:34;0.00;;;0.00;;
51080;SDS011;37130;55.670;37.596;2023-09-07T01:29:06;0.00;;;0.00;;
51080;SDS011;37130;55.670;37.596;2023-09-07T01:31:36;0.00;;;0.00;;
51080;SDS011;37130;55.670;37.596;2023-09-07T01:34:06;0.00;;;0.00;;
51080;SDS011;37130;55.670;37.596;2023-09-07T01:36:34;0.00;;;0.00;;
51080;SDS011;37130;55.670;37.596;2023-09-07T01:39:03;0.00;;;0.00;;
51080;SDS011;37130;55.670;37.596;2023-09-07T01:41:34;0.00;;;0.00;;
51080;SDS011;37130;55.670;37.596;2023-09-07T01:44:02;0.00;;;0.00;;
51080;SDS011;37130;55.670;37.596;2023-09-07T01:46:30;0.00;;;0.00;;
51080;SDS011;37130;55.670;37.596;2023-09-07T01:48:58;0.00;;;0.00;;
51080;SDS011;37130;55.670;37.596;2023-09-07T01:51:25;0.00;;;0.00;;
51080;SDS011;37130;55.670;37.596;2023-09-07T01:53:55;0.00;;;0.00;;
51080;SDS011;37130;55.670;37.596;2023-09-07T01:56:22;0.00;;;0.00;;
51080;SDS011;37130;55.670;37.596;2023-09-07T01:58:50;0.00;;;0.00;;
51080;SDS011;37130;55.670;37.596;2023-09-07T02:01:24;0.00;;;0.00;;
51080;SDS011;37130;55.670;37.596;2023-09-07T02:03:53;0.00;;;0.00;;
51080;SDS011;37130;55.670;37.596;2023-09-07T02:06:20;0.00;;;0.00;;
51080;SDS011;37130;55.670;37.596;2023-09-07T02:08:48;0.00;;;0.00;;
51080;SDS011;37130;55.670;37.596;2023-09-07T02:11:16;0.00;;;0.00;;
51080;SDS011;37130;55.670;37.596;2023-09-07T02:13:44;0.00;;;0.00;;
51080;SDS011;37130;55.670;37.596;2023-09-07T02:16:13;0.00;;;0.00;;
51080;SDS011;37130;55.670;37.596;2023-09-07T02:18:42;0.00;;;0.00;;
51080;SDS011;37130;55.670;37.596;2023-09-07T02:21:15;0.00;;;0.00;;
51080;SDS011;37130;55.670;37.596;2023-09-07T02:23:43;0.00;;;0.00;;
51080;SDS011;37130;55.670;37.596;2023-09-07T02:26:10;0.00;;;0.00;;
51080;SDS011;37130;55.670;37.596;2023-09-07T02:28:38;0.00;;;0.00;;
51080;SDS011;37130;55.670;37.596;2023-09-07T02:31:06;0.00;;;0.00;;
51080;SDS011;37130;55.670;37.596;2023-09-07T02:33:34;0.00;;;0.00;;
51080;SDS011;37130;55.670;37.596;2023-09-07T02:36:03;0.00;;;0.00;;
51080;SDS011;37130;55.670;37.596;2023-09-07T02:38:32;0.00;;;0.00;;
51080;SDS011;37130;55.670;37.596;2023-09-07T02:41:01;0.00;;;0.00;;
51080;SDS011;37130;55.670;37.596;2023-09-07T02:43:29;0.00;;;0.00;;
51080;SDS011;37130;55.670;37.596;2023-09-07T02:45:57;0.00;;;0.00;;
51080;SDS011;37130;55.670;37.596;2023-09-07T02:48:25;0.00;;;0.00;;
51080;SDS011;37130;55.670;37.596;2023-09-07T02:50:52;0.00;;;0.00;;
51080;SDS011;37130;55.670;37.596;2023-09-07T02:53:22;0.00;;;0.00;;
51080;SDS011;37130;55.670;37.596;2023-09-07T02:55:50;0.00;;;0.00;;
51080;SDS011;37130;55.670;37.596;2023-09-07T02:58:17;0.00;;;0.00;;
51080;SDS011;37130;55.670;37.596;2023-09-07T03:00:46;0.00;;;0.00;;
51080;SDS011;37130;55.670;37.596;2023-09-07T03:03:17;0.00;;;0.00;;
51080;SDS011;37130;55.670;37.596;2023-09-07T03:05:46;0.00;;;0.00;;
51080;SDS011;37130;55.670;37.596;2023-09-07T03:08:14;0.00;;;0.00;;
51080;SDS011;37130;55.670;37.596;2023-09-07T03:10:42;0.00;;;0.00;;
51080;SDS011;37130;55.670;37.596;2023-09-07T03:13:11;0.00;;;0.00;;
51080;SDS011;37130;55.670;37.596;2023-09-07T03:15:39;0.00;;;0.00;;
51080;SDS011;37130;55.670;37.596;2023-09-07T03:18:10;0.00;;;0.00;;
51080;SDS011;37130;55.670;37.596;2023-09-07T03:20:39;0.00;;;0.00;;
51080;SDS011;37130;55.670;37.596;2023-09-07T03:23:06;0.00;;;0.00;;
51080;SDS011;37130;55.670;37.596;2023-09-07T03:25:35;0.00;;;0.00;;
51080;SDS011;37130;55.670;37.596;2023-09-07T03:28:02;0.00;;;0.00;;
51080;SDS011;37130;55.670;37.596;2023-09-07T03:30:32;0.00;;;0.00;;
51080;SDS011;37130;55.670;37.596;2023-09-07T03:33:01;0.00;;;0.00;;
51080;SDS011;37130;55.670;37.596;2023-09-07T03:35:30;0.00;;;0.00;;
51080;SDS011;37130;55.670;37.596;2023-09-07T03:37:57;0.00;;;0.00;;
51080;SDS011;37130;55.670;37.596;2023-09-07T03:40:25;0.00;;;0.00;;
51080;SDS011;37130;55.670;37.596;2023-09-07T03:42:53;0.00;;;0.00;;
51080;SDS011;37130;55.670;37.596;2023-09-07T03:45:20;0.00;;;0.00;;
51080;SDS011;37130;55.670;37.596;2023-09-07T03:47:48;0.00;;;0.00;;
51080;SDS011;37130;55.670;37.596;2023-09-07T03:50:17;0.00;;;0.00;;
51080;SDS011;37130;55.670;37.596;2023-09-07T03:52:44;0.00;;;0.00;;
51080;SDS011;37130;55.670;37.596;2023-09-07T03:55:11;0.00;;;0.00;;
51080;SDS011;37130;55.670;37.596;2023-09-07T03:57:39;0.00;;;0.00;;
51080;SDS011;37130;55.670;37.596;2023-09-07T04:00:07;0.00;;;0.00;;
51080;SDS011;37130;55.670;37.596;2023-09-07T04:02:46;0.00;;;0.00;;
51080;SDS011;37130;55.670;37.596;2023-09-07T04:05:13;0.00;;;0.00;;
51080;SDS011;37130;55.670;37.596;2023-09-07T04:07:41;0.00;;;0.00;;
51080;SDS011;37130;55.670;37.596;2023-09-07T04:10:08;0.00;;;0.00;;
51080;SDS011;37130;55.670;37.596;2023-09-07T04:12:36;0.00;;;0.00;;
51080;SDS011;37130;55.670;37.596;2023-09-07T04:15:03;0.00;;;0.00;;
51080;SDS011;37130;55.670;37.596;2023-09-07T04:17:32;0.00;;;0.00;;
51080;SDS011;37130;55.670;37.596;2023-09-07T04:20:07;0.00;;;0.00;;
51080;SDS011;37130;55.670;37.596;2023-09-07T04:22:36;0.00;;;0.00;;
51080;SDS011;37130;55.670;37.596;2023-09-07T04:25:03;0.00;;;0.00;;
51080;SDS011;37130;55.670;37.596;2023-09-07T04:27:31;0.00;;;0.00;;
51080;SDS011;37130;55.670;37.596;2023-09-07T04:30:01;0.00;;;0.00;;
51080;SDS011;37130;55.670;37.596;2023-09-07T04:32:33;0.00;;;0.00;;
51080;SDS011;37130;55.670;37.596;2023-09-07T04:35:01;0.00;;;0.00;;
51080;SDS011;37130;55.670;37.596;2023-09-07T04:37:31;0.00;;;0.00;;
51080;SDS011;37130;55.670;37.596;2023-09-07T04:39:58;0.00;;;0.00;;
51080;SDS011;37130;55.670;37.596;2023-09-07T04:42:26;0.00;;;0.00;;
51080;SDS011;37130;55.670;37.596;2023-09-07T04:44:54;0.00;;;0.00;;
51080;SDS011;37130;55.670;37.596;2023-09-07T04:47:21;0.00;;;0.00;;
51080;SDS011;37130;55.670;37.596;2023-09-07T04:49:49;0.00;;;0.00;;
51080;SDS011;37130;55.670;37.596;2023-09-07T04:52:21;0.08;;;0.08;;
51080;SDS011;37130;55.670;37.596;2023-09-07T04:54:49;0.10;;;0.10;;
51080;SDS011;37130;55.670;37.596;2023-09-07T04:57:18;0.00;;;0.00;;
51080;SDS011;37130;55.670;37.596;2023-09-07T04:59:47;0.10;;;0.10;;
51080;SDS011;37130;55.670;37.596;2023-09-07T05:02:15;0.10;;;0.10;;
51080;SDS011;37130;55.670;37.596;2023-09-07T05:04:42;0.00;;;0.00;;
51080;SDS011;37130;55.670;37.596;2023-09-07T05:07:10;0.00;;;0.00;;
51080;SDS011;37130;55.670;37.596;2023-09-07T05:09:38;0.00;;;0.00;;
51080;SDS011;37130;55.670;37.596;2023-09-07T05:12:05;0.00;;;0.00;;
51080;SDS011;37130;55.670;37.596;2023-09-07T05:14:33;0.00;;;0.00;;
51080;SDS011;37130;55.670;37.596;2023-09-07T05:17:00;0.00;;;0.00;;
51080;SDS011;37130;55.670;37.596;2023-09-07T05:19:28;0.00;;;0.00;;
51080;SDS011;37130;55.670;37.596;2023-09-07T05:21:55;0.10;;;0.10;;
51080;SDS011;37130;55.670;37.596;2023-09-07T05:24:23;0.10;;;0.10;;
51080;SDS011;37130;55.670;37.596;2023-09-07T05:26:51;0.00;;;0.00;;
51080;SDS011;37130;55.670;37.596;2023-09-07T05:29:18;0.00;;;0.00;;
51080;SDS011;37130;55.670;37.596;2023-09-07T05:31:47;0.10;;;0.10;;
51080;SDS011;37130;55.670;37.596;2023-09-07T05:34:15;0.10;;;0.10;;
51080;SDS011;37130;55.670;37.596;2023-09-07T05:36:42;0.17;;;0.17;;
51080;SDS011;37130;55.670;37.596;2023-09-07T05:39:09;0.20;;;0.20;;
51080;SDS011;37130;55.670;37.596;2023-09-07T05:41:37;0.20;;;0.20;;
51080;SDS011;37130;55.670;37.596;2023-09-07T05:44:04;0.30;;;0.30;;
51080;SDS011;37130;55.670;37.596;2023-09-07T05:46:32;0.30;;;0.30;;
51080;SDS011;37130;55.670;37.596;2023-09-07T05:48:59;0.40;;;0.40;;
51080;SDS011;37130;55.670;37.596;2023-09-07T05:51:27;0.35;;;0.35;;
51080;SDS011;37130;55.670;37.596;2023-09-07T05:53:55;0.50;;;0.50;;
51080;SDS011;37130;55.670;37.596;2023-09-07T05:56:22;0.40;;;0.40;;
51080;SDS011;37130;55.670;37.596;2023-09-07T05:58:50;0.50;;;0.50;;
51080;SDS011;37130;55.670;37.596;2023-09-07T06:01:18;0.60;;;0.60;;
51080;SDS011;37130;55.670;37.596;2023-09-07T06:03:46;0.60;;;0.60;;
51080;SDS011;37130;55.670;37.596;2023-09-07T06:06:14;0.60;;;0.60;;
51080;SDS011;37130;55.670;37.596;2023-09-07T06:08:41;0.63;;;0.63;;
51080;SDS011;37130;55.670;37.596;2023-09-07T06:11:08;0.80;;;0.80;;
51080;SDS011;37130;55.670;37.596;2023-09-07T06:13:36;0.90;;;0.90;;
51080;SDS011;37130;55.670;37.596;2023-09-07T06:16:03;0.70;;;0.70;;
51080;SDS011;37130;55.670;37.596;2023-09-07T06:18:30;0.80;;;0.80;;
51080;SDS011;37130;55.670;37.596;2023-09-07T06:20:58;1.00;;;1.00;;
51080;SDS011;37130;55.670;37.596;2023-09-07T06:23:25;1.00;;;1.00;;
51080;SDS011;37130;55.670;37.596;2023-09-07T06:25:52;0.90;;;0.90;;
51080;SDS011;37130;55.670;37.596;2023-09-07T06:28:20;0.80;;;0.80;;
51080;SDS011;37130;55.670;37.596;2023-09-07T06:30:48;1.00;;;1.00;;
51080;SDS011;37130;55.670;37.596;2023-09-07T06:33:16;0.90;;;0.90;;
51080;SDS011;37130;55.670;37.596;2023-09-07T06:35:45;0.90;;;0.90;;
51080;SDS011;37130;55.670;37.596;2023-09-07T06:38:12;0.93;;;0.93;;
51080;SDS011;37130;55.670;37.596;2023-09-07T06:40:47;0.90;;;0.90;;
51080;SDS011;37130;55.670;37.596;2023-09-07T06:43:17;0.90;;;0.90;;
51080;SDS011;37130;55.670;37.596;2023-09-07T06:45:45;1.10;;;1.10;;
51080;SDS011;37130;55.670;37.596;2023-09-07T06:48:14;1.10;;;1.10;;
51080;SDS011;37130;55.670;37.596;2023-09-07T06:50:42;1.20;;;1.20;;
51080;SDS011;37130;55.670;37.596;2023-09-07T06:53:09;1.23;;;1.23;;
51080;SDS011;37130;55.670;37.596;2023-09-07T06:55:42;1.30;;;1.30;;
51080;SDS011;37130;55.670;37.596;2023-09-07T06:58:09;1.40;;;1.40;;
51080;SDS011;37130;55.670;37.596;2023-09-07T07:00:37;1.40;;;1.40;;
51080;SDS011;37130;55.670;37.596;2023-09-07T07:03:04;1.48;;;1.48;;
51080;SDS011;37130;55.670;37.596;2023-09-07T07:05:34;1.50;;;1.50;;
51080;SDS011;37130;55.670;37.596;2023-09-07T07:08:01;1.70;;;1.70;;
51080;SDS011;37130;55.670;37.596;2023-09-07T07:10:29;1.77;;;1.77;;
51080;SDS011;37130;55.670;37.596;2023-09-07T07:12:56;1.85;;;1.85;;
51080;SDS011;37130;55.670;37.596;2023-09-07T07:15:24;1.75;;;1.75;;
51080;SDS011;37130;55.670;37.596;2023-09-07T07:17:51;2.10;;;2.10;;
51080;SDS011;37130;55.670;37.596;2023-09-07T07:20:19;2.05;;;2.05;;
51080;SDS011;37130;55.670;37.596;2023-09-07T07:22:46;2.35;;;2.25;;
51080;SDS011;37130;55.670;37.596;2023-09-07T07:25:16;2.00;;;2.00;;
51080;SDS011;37130;55.670;37.596;2023-09-07T07:28:14;1.90;;;1.90;;
51080;SDS011;37130;55.670;37.596;2023-09-07T07:30:42;1.90;;;1.90;;
51080;SDS011;37130;55.670;37.596;2023-09-07T07:33:10;1.90;;;1.90;;
51080;SDS011;37130;55.670;37.596;2023-09-07T07:35:40;1.52;;;1.52;;
51080;SDS011;37130;55.670;37.596;2023-09-07T07:38:08;1.88;;;1.88;;
51080;SDS011;37130;55.670;37.596;2023-09-07T07:40:37;1.75;;;1.75;;
51080;SDS011;37130;55.670;37.596;2023-09-07T07:43:04;1.80;;;1.80;;
51080;SDS011;37130;55.670;37.596;2023-09-07T07:45:33;1.88;;;1.88;;
51080;SDS011;37130;55.670;37.596;2023-09-07T07:48:04;1.80;;;1.80;;
51080;SDS011;37130;55.670;37.596;2023-09-07T07:50:40;2.08;;;2.08;;
51080;SDS011;37130;55.670;37.596;2023-09-07T07:53:11;1.88;;;1.88;;
51080;SDS011;37130;55.670;37.596;2023-09-07T07:55:41;1.98;;;1.98;;
51080;SDS011;37130;55.670;37.596;2023-09-07T07:58:13;1.95;;;1.95;;
51080;SDS011;37130;55.670;37.596;2023-09-07T08:00:41;1.80;;;1.80;;
51080;SDS011;37130;55.670;37.596;2023-09-07T08:03:11;1.80;;;1.80;;
51080;SDS011;37130;55.670;37.596;2023-09-07T08:05:39;1.60;;;1.60;;
51080;SDS011;37130;55.670;37.596;2023-09-07T08:08:08;1.90;;;1.90;;
51080;SDS011;37130;55.670;37.596;2023-09-07T08:10:36;1.80;;;1.80;;
51080;SDS011;37130;55.670;37.596;2023-09-07T08:13:06;1.67;;;1.67;;
51080;SDS011;37130;55.670;37.596;2023-09-07T08:15:33;1.20;;;1.20;;
51080;SDS011;37130;55.670;37.596;2023-09-07T08:18:04;1.20;;;1.20;;
51080;SDS011;37130;55.670;37.596;2023-09-07T08:20:32;0.80;;;0.80;;
51080;SDS011;37130;55.670;37.596;2023-09-07T08:23:00;0.60;;;0.60;;
51080;SDS011;37130;55.670;37.596;2023-09-07T08:25:31;0.40;;;0.40;;
51080;SDS011;37130;55.670;37.596;2023-09-07T08:27:59;0.30;;;0.30;;
51080;SDS011;37130;55.670;37.596;2023-09-07T08:30:26;0.20;;;0.20;;
51080;SDS011;37130;55.670;37.596;2023-09-07T08:32:54;0.10;;;0.10;;
51080;SDS011;37130;55.670;37.596;2023-09-07T08:35:22;0.10;;;0.10;;
51080;SDS011;37130;55.670;37.596;2023-09-07T08:37:54;0.10;;;0.10;;
51080;SDS011;37130;55.670;37.596;2023-09-07T08:40:21;0.08;;;0.08;;
51080;SDS011;37130;55.670;37.596;2023-09-07T08:42:50;0.00;;;0.00;;
51080;SDS011;37130;55.670;37.596;2023-09-07T08:45:18;0.00;;;0.00;;
51080;SDS011;37130;55.670;37.596;2023-09-07T08:47:53;0.00;;;0.00;;
51080;SDS011;37130;55.670;37.596;2023-09-07T08:50:23;0.00;;;0.00;;
51080;SDS011;37130;55.670;37.596;2023-09-07T08:52:51;0.00;;;0.00;;
51080;SDS011;37130;55.670;37.596;2023-09-07T08:55:20;0.00;;;0.00;;
51080;SDS011;37130;55.670;37.596;2023-09-07T08:57:48;0.00;;;0.00;;
51080;SDS011;37130;55.670;37.596;2023-09-07T09:00:15;0.00;;;0.00;;
51080;SDS011;37130;55.670;37.596;2023-09-07T09:02:46;0.00;;;0.00;;
51080;SDS011;37130;55.670;37.596;2023-09-07T09:05:23;0.00;;;0.00;;
51080;SDS011;37130;55.670;37.596;2023-09-07T09:08:01;0.00;;;0.00;;
51080;SDS011;37130;55.670;37.596;2023-09-07T09:10:30;0.00;;;0.00;;
51080;SDS011;37130;55.670;37.596;2023-09-07T09:12:57;0.00;;;0.00;;
51080;SDS011;37130;55.670;37.596;2023-09-07T09:15:28;0.00;;;0.00;;
51080;SDS011;37130;55.670;37.596;2023-09-07T09:17:55;0.00;;;0.00;;
51080;SDS011;37130;55.670;37.596;2023-09-07T09:20:24;0.00;;;0.00;;
51080;SDS011;37130;55.670;37.596;2023-09-07T09:22:54;0.00;;;0.00;;
51080;SDS011;37130;55.670;37.596;2023-09-07T09:25:21;0.00;;;0.00;;
51080;SDS011;37130;55.670;37.596;2023-09-07T09:27:49;0.00;;;0.00;;
51080;SDS011;37130;55.670;37.596;2023-09-07T09:30:17;0.00;;;0.00;;
51080;SDS011;37130;55.670;37.596;2023-09-07T09:32:44;0.00;;;0.00;;
51080;SDS011;37130;55.670;37.596;2023-09-07T09:35:15;0.00;;;0.00;;
51080;SDS011;37130;55.670;37.596;2023-09-07T09:37:47;0.00;;;0.00;;
51080;SDS011;37130;55.670;37.596;2023-09-07T09:40:15;0.00;;;0.00;;
51080;SDS011;37130;55.670;37.596;2023-09-07T09:42:46;0.00;;;0.00;;
51080;SDS011;37130;55.670;37.596;2023-09-07T09:45:16;0.00;;;0.00;;
51080;SDS011;37130;55.670;37.596;2023-09-07T09:47:44;0.00;;;0.00;;
51080;SDS011;37130;55.670;37.596;2023-09-07T09:50:12;0.00;;;0.00;;
51080;SDS011;37130;55.670;37.596;2023-09-07T09:52:40;0.00;;;0.00;;
51080;SDS011;37130;55.670;37.596;2023-09-07T09:55:08;0.00;;;0.00;;
51080;SDS011;37130;55.670;37.596;2023-09-07T09:57:40;0.00;;;0.00;;
51080;SDS011;37130;55.670;37.596;2023-09-07T10:00:07;0.00;;;0.00;;
51080;SDS011;37130;55.670;37.596;2023-09-07T10:03:00;0.00;;;0.00;;
51080;SDS011;37130;55.670;37.596;2023-09-07T10:05:31;0.00;;;0.00;;
51080;SDS011;37130;55.670;37.596;2023-09-07T10:08:02;0.00;;;0.00;;
51080;SDS011;37130;55.670;37.596;2023-09-07T10:10:34;0.00;;;0.00;;
51080;SDS011;37130;55.670;37.596;2023-09-07T10:13:03;0.00;;;0.00;;
51080;SDS011;37130;55.670;37.596;2023-09-07T10:15:31;0.00;;;0.00;;
51080;SDS011;37130;55.670;37.596;2023-09-07T10:18:03;0.00;;;0.00;;
51080;SDS011;37130;55.670;37.596;2023-09-07T10:20:45;0.00;;;0.00;;
51080;SDS011;37130;55.670;37.596;2023-09-07T10:23:22;0.00;;;0.00;;
51080;SDS011;37130;55.670;37.596;2023-09-07T10:25:51;0.00;;;0.00;;
51080;SDS011;37130;55.670;37.596;2023-09-07T10:28:20;0.00;;;0.00;;
51080;SDS011;37130;55.670;37.596;2023-09-07T10:31:07;0.00;;;0.00;;
51080;SDS011;37130;55.670;37.596;2023-09-07T10:33:45;0.00;;;0.00;;
51080;SDS011;37130;55.670;37.596;2023-09-07T10:36:23;0.00;;;0.00;;
51080;SDS011;37130;55.670;37.596;2023-09-07T10:38:53;0.00;;;0.00;;
51080;SDS011;37130;55.670;37.596;2023-09-07T10:41:22;0.00;;;0.00;;
51080;SDS011;37130;55.670;37.596;2023-09-07T10:43:50;0.00;;;0.00;;
51080;SDS011;37130;55.670;37.596;2023-09-07T10:46:19;0.00;;;0.00;;
51080;SDS011;37130;55.670;37.596;2023-09-07T10:48:51;0.00;;;0.00;;
51080;SDS011;37130;55.670;37.596;2023-09-07T10:51:20;0.00;;;0.00;;
51080;SDS011;37130;55.670;37.596;2023-09-07T10:53:48;0.00;;;0.00;;
51080;SDS011;37130;55.670;37.596;2023-09-07T10:56:16;0.00;;;0.00;;
51080;SDS011;37130;55.670;37.596;2023-09-07T10:58:43;0.00;;;0.00;;
51080;SDS011;37130;55.670;37.596;2023-09-07T11:01:11;0.00;;;0.00;;
51080;SDS011;37130;55.670;37.596;2023-09-07T11:03:42;0.00;;;0.00;;
51080;SDS011;37130;55.670;37.596;2023-09-07T11:06:10;0.00;;;0.00;;
51080;SDS011;37130;55.670;37.596;2023-09-07T11:08:42;0.00;;;0.00;;
51080;SDS011;37130;55.670;37.596;2023-09-07T11:11:09;0.00;;;0.00;;
51080;SDS011;37130;55.670;37.596;2023-09-07T11:13:37;0.00;;;0.00;;
51080;SDS011;37130;55.670;37.596;2023-09-07T11:16:06;0.00;;;0.00;;
51080;SDS011;37130;55.670;37.596;2023-09-07T11:18:35;0.00;;;0.00;;
51080;SDS011;37130;55.670;37.596;2023-09-07T11:21:03;0.10;;;0.00;;
51080;SDS011;37130;55.670;37.596;2023-09-07T11:23:31;0.00;;;0.00;;
51080;SDS011;37130;55.670;37.596;2023-09-07T11:26:05;0.00;;;0.00;;
51080;SDS011;37130;55.670;37.596;2023-09-07T11:28:34;0.00;;;0.00;;
51080;SDS011;37130;55.670;37.596;2023-09-07T11:31:01;0.00;;;0.00;;
51080;SDS011;37130;55.670;37.596;2023-09-07T11:33:32;0.00;;;0.00;;
51080;SDS011;37130;55.670;37.596;2023-09-07T11:36:00;0.00;;;0.00;;
51080;SDS011;37130;55.670;37.596;2023-09-07T11:38:34;0.00;;;0.00;;
51080;SDS011;37130;55.670;37.596;2023-09-07T11:41:03;0.00;;;0.00;;
51080;SDS011;37130;55.670;37.596;2023-09-07T11:43:31;0.00;;;0.00;;
51080;SDS011;37130;55.670;37.596;2023-09-07T11:46:02;0.00;;;0.00;;
51080;SDS011;37130;55.670;37.596;2023-09-07T11:48:31;0.00;;;0.00;;
51080;SDS011;37130;55.670;37.596;2023-09-07T11:50:59;0.00;;;0.00;;
51080;SDS011;37130;55.670;37.596;2023-09-07T11:53:27;0.00;;;0.00;;
51080;SDS011;37130;55.670;37.596;2023-09-07T11:55:56;0.00;;;0.00;;
51080;SDS011;37130;55.670;37.596;2023-09-07T11:58:24;0.00;;;0.00;;
51080;SDS011;37130;55.670;37.596;2023-09-07T12:00:56;0.00;;;0.00;;
51080;SDS011;37130;55.670;37.596;2023-09-07T12:03:23;0.00;;;0.00;;
51080;SDS011;37130;55.670;37.596;2023-09-07T12:05:51;0.00;;;0.00;;
51080;SDS011;37130;55.670;37.596;2023-09-07T12:08:18;0.00;;;0.00;;
51080;SDS011;37130;55.670;37.596;2023-09-07T12:10:46;0.00;;;0.00;;
51080;SDS011;37130;55.670;37.596;2023-09-07T12:13:13;0.00;;;0.00;;
51080;SDS011;37130;55.670;37.596;2023-09-07T12:15:41;0.00;;;0.00;;
51080;SDS011;37130;55.670;37.596;2023-09-07T12:18:08;0.00;;;0.00;;
51080;SDS011;37130;55.670;37.596;2023-09-07T12:20:36;0.00;;;0.00;;
51080;SDS011;37130;55.670;37.596;2023-09-07T12:23:03;0.00;;;0.00;;
51080;SDS011;37130;55.670;37.596;2023-09-07T12:25:31;0.00;;;0.00;;
51080;SDS011;37130;55.670;37.596;2023-09-07T12:27:59;0.00;;;0.00;;
51080;SDS011;37130;55.670;37.596;2023-09-07T12:30:26;0.00;;;0.00;;
51080;SDS011;37130;55.670;37.596;2023-09-07T12:32:54;0.00;;;0.00;;
51080;SDS011;37130;55.670;37.596;2023-09-07T12:35:21;0.00;;;0.00;;
51080;SDS011;37130;55.670;37.596;2023-09-07T12:37:48;0.00;;;0.00;;
51080;SDS011;37130;55.670;37.596;2023-09-07T12:40:16;0.00;;;0.00;;
51080;SDS011;37130;55.670;37.596;2023-09-07T12:42:45;0.00;;;0.00;;
51080;SDS011;37130;55.670;37.596;2023-09-07T12:45:13;0.00;;;0.00;;
51080;SDS011;37130;55.670;37.596;2023-09-07T12:47:43;0.00;;;0.00;;
51080;SDS011;37130;55.670;37.596;2023-09-07T12:50:11;0.00;;;0.00;;
51080;SDS011;37130;55.670;37.596;2023-09-07T12:52:38;0.00;;;0.00;;
51080;SDS011;37130;55.670;37.596;2023-09-07T12:55:06;0.00;;;0.00;;
51080;SDS011;37130;55.670;37.596;2023-09-07T12:57:34;0.00;;;0.00;;
51080;SDS011;37130;55.670;37.596;2023-09-07T13:00:06;0.00;;;0.00;;
51080;SDS011;37130;55.670;37.596;2023-09-07T13:02:34;0.00;;;0.00;;
51080;SDS011;37130;55.670;37.596;2023-09-07T13:05:02;0.00;;;0.00;;
51080;SDS011;37130;55.670;37.596;2023-09-07T13:07:32;0.00;;;0.00;;
51080;SDS011;37130;55.670;37.596;2023-09-07T13:10:00;0.00;;;0.00;;
51080;SDS011;37130;55.670;37.596;2023-09-07T13:12:32;0.00;;;0.00;;
51080;SDS011;37130;55.670;37.596;2023-09-07T13:14:59;0.00;;;0.00;;
51080;SDS011;37130;55.670;37.596;2023-09-07T13:17:31;0.00;;;0.00;;
51080;SDS011;37130;55.670;37.596;2023-09-07T13:19:58;0.00;;;0.00;;
51080;SDS011;37130;55.670;37.596;2023-09-07T13:22:29;0.00;;;0.00;;
51080;SDS011;37130;55.670;37.596;2023-09-07T13:24:56;0.00;;;0.00;;
51080;SDS011;37130;55.670;37.596;2023-09-07T13:27:24;0.00;;;0.00;;
51080;SDS011;37130;55.670;37.596;2023-09-07T13:29:53;0.00;;;0.00;;
51080;SDS011;37130;55.670;37.596;2023-09-07T13:32:20;0.00;;;0.00;;
51080;SDS011;37130;55.670;37.596;2023-09-07T13:34:48;0.00;;;0.00;;
51080;SDS011;37130;55.670;37.596;2023-09-07T13:37:15;0.00;;;0.00;;
51080;SDS011;37130;55.670;37.596;2023-09-07T13:39:42;0.00;;;0.00;;
51080;SDS011;37130;55.670;37.596;2023-09-07T13:42:10;0.00;;;0.00;;
51080;SDS011;37130;55.670;37.596;2023-09-07T13:44:37;0.00;;;0.00;;
51080;SDS011;37130;55.670;37.596;2023-09-07T13:47:05;0.00;;;0.00;;
51080;SDS011;37130;55.670;37.596;2023-09-07T13:49:33;0.00;;;0.00;;
51080;SDS011;37130;55.670;37.596;2023-09-07T13:52:00;0.00;;;0.00;;
51080;SDS011;37130;55.670;37.596;2023-09-07T13:54:27;0.00;;;0.00;;
51080;SDS011;37130;55.670;37.596;2023-09-07T13:56:56;0.00;;;0.00;;
51080;SDS011;37130;55.670;37.596;2023-09-07T13:59:23;0.00;;;0.00;;
51080;SDS011;37130;55.670;37.596;2023-09-07T14:01:55;0.00;;;0.00;;
51080;SDS011;37130;55.670;37.596;2023-09-07T14:04:23;0.00;;;0.00;;
51080;SDS011;37130;55.670;37.596;2023-09-07T14:06:50;0.00;;;0.00;;
51080;SDS011;37130;55.670;37.596;2023-09-07T14:09:17;0.00;;;0.00;;
51080;SDS011;37130;55.670;37.596;2023-09-07T14:11:46;0.00;;;0.00;;
51080;SDS011;37130;55.670;37.596;2023-09-07T14:14:13;0.00;;;0.00;;
51080;SDS011;37130;55.670;37.596;2023-09-07T14:16:41;0.00;;;0.00;;
51080;SDS011;37130;55.670;37.596;2023-09-07T14:19:09;0.00;;;0.00;;
51080;SDS011;37130;55.670;37.596;2023-09-07T14:21:36;0.00;;;0.00;;
51080;SDS011;37130;55.670;37.596;2023-09-07T14:24:04;0.00;;;0.00;;
51080;SDS011;37130;55.670;37.596;2023-09-07T14:26:31;0.00;;;0.00;;
51080;SDS011;37130;55.670;37.596;2023-09-07T14:28:59;0.00;;;0.00;;
51080;SDS011;37130;55.670;37.596;2023-09-07T14:31:26;0.00;;;0.00;;
51080;SDS011;37130;55.670;37.596;2023-09-07T14:33:53;0.00;;;0.00;;
51080;SDS011;37130;55.670;37.596;2023-09-07T14:36:21;0.00;;;0.00;;
51080;SDS011;37130;55.670;37.596;2023-09-07T14:38:48;0.00;;;0.00;;
51080;SDS011;37130;55.670;37.596;2023-09-07T14:41:16;0.00;;;0.00;;
51080;SDS011;37130;55.670;37.596;2023-09-07T14:43:47;0.00;;;0.00;;
51080;SDS011;37130;55.670;37.596;2023-09-07T14:46:15;0.00;;;0.00;;